Worthington, Ohio
Current Conditions -  °F | °C
As of 5:53 AM on Saturday 25 Oct 2014 (Local Time) from KOSU Reporting Station
Broken Clouds Broken Clouds  
Wind Chill: 45°   Ceiling: 3900
Heat Index: 45°   Visibility: 7mi
Dew Point: 40°   Wind: 3mph
Humidity: 82%   Direction: 250°WSW
Pressure: 29.98"   Gusts: NA
Location:  40.1°N, 83.02°W
Report Text: KOSU 250953Z AUTO 25003KT 7SM BKN039 BKN100 07/04 A2998 RMK AO2 SLP152 T00720044
Loading
Personal Weather Stations






























Interactive Weather Map
Tropical Storm Tracking
New forecast layout! Learn more

10-Day Weather Forecast

Advertisements
Track Severe Weather on mobile